sensor_id;sensor_type;location;lat;lon;timestamp;P1;P2;P0
60816;PMS5003;51921;51.518;-3.188;2023-02-22T00:00:26;15;15;
60816;PMS5003;51921;51.518;-3.188;2023-02-22T00:02:51;17;17;
60816;PMS5003;51921;51.518;-3.188;2023-02-22T00:05:17;17;17;
60816;PMS5003;51921;51.518;-3.188;2023-02-22T00:07:42;16;15;
60816;PMS5003;51921;51.518;-3.188;2023-02-22T00:10:07;17;17;
60816;PMS5003;51921;51.518;-3.188;2023-02-22T00:12:33;22;20;
60816;PMS5003;51921;51.518;-3.188;2023-02-22T00:15:04;26;25;
60816;PMS5003;51921;51.518;-3.188;2023-02-22T00:17:24;24;23;
60816;PMS5003;51921;51.518;-3.188;2023-02-22T00:19:50;23;22;
60816;PMS5003;51921;51.518;-3.188;2023-02-22T00:22:15;26;24;
60816;PMS5003;51921;51.518;-3.188;2023-02-22T00:24:41;25;23;
60816;PMS5003;51921;51.518;-3.188;2023-02-22T00:27:06;23;23;
60816;PMS5003;51921;51.518;-3.188;2023-02-22T00:29:31;20;18;
60816;PMS5003;51921;51.518;-3.188;2023-02-22T00:31:57;22;21;
60816;PMS5003;51921;51.518;-3.188;2023-02-22T00:34:22;21;20;
60816;PMS5003;51921;51.518;-3.188;2023-02-22T00:36:48;17;16;
60816;PMS5003;51921;51.518;-3.188;2023-02-22T00:39:13;18;17;
60816;PMS5003;51921;51.518;-3.188;2023-02-22T00:41:39;19;18;
60816;PMS5003;51921;51.518;-3.188;2023-02-22T00:44:04;19;18;
60816;PMS5003;51921;51.518;-3.188;2023-02-22T00:48:55;16;15;
60816;PMS5003;51921;51.518;-3.188;2023-02-22T00:51:21;21;18;
60816;PMS5003;51921;51.518;-3.188;2023-02-22T00:56:12;17;16;
60816;PMS5003;51921;51.518;-3.188;2023-02-22T00:58:37;17;15;
60816;PMS5003;51921;51.518;-3.188;2023-02-22T01:01:03;19;17;
60816;PMS5003;51921;51.518;-3.188;2023-02-22T01:03:28;21;21;
60816;PMS5003;51921;51.518;-3.188;2023-02-22T01:05:54;18;17;
60816;PMS5003;51921;51.518;-3.188;2023-02-22T01:08:19;17;16;
60816;PMS5003;51921;51.518;-3.188;2023-02-22T01:10:44;20;19;
60816;PMS5003;51921;51.518;-3.188;2023-02-22T01:13:09;28;27;
60816;PMS5003;51921;51.518;-3.188;2023-02-22T01:18:00;29;27;
60816;PMS5003;51921;51.518;-3.188;2023-02-22T01:20:26;31;29;
60816;PMS5003;51921;51.518;-3.188;2023-02-22T01:22:52;37;34;
60816;PMS5003;51921;51.518;-3.188;2023-02-22T01:25:17;33;32;
60816;PMS5003;51921;51.518;-3.188;2023-02-22T01:27:42;30;29;
60816;PMS5003;51921;51.518;-3.188;2023-02-22T01:32:34;36;34;
60816;PMS5003;51921;51.518;-3.188;2023-02-22T01:34:59;36;35;
60816;PMS5003;51921;51.518;-3.188;2023-02-22T01:37:24;29;28;
60816;PMS5003;51921;51.518;-3.188;2023-02-22T01:39:50;35;35;
60816;PMS5003;51921;51.518;-3.188;2023-02-22T01:42:16;37;36;
60816;PMS5003;51921;51.518;-3.188;2023-02-22T01:44:41;39;37;
60816;PMS5003;51921;51.518;-3.188;2023-02-22T01:47:07;36;34;
60816;PMS5003;51921;51.518;-3.188;2023-02-22T01:49:34;37;35;
60816;PMS5003;51921;51.518;-3.188;2023-02-22T01:51:58;35;32;
60816;PMS5003;51921;51.518;-3.188;2023-02-22T01:54:24;34;32;
60816;PMS5003;51921;51.518;-3.188;2023-02-22T01:56:49;32;31;
60816;PMS5003;51921;51.518;-3.188;2023-02-22T01:59:13;37;34;
60816;PMS5003;51921;51.518;-3.188;2023-02-22T02:01:39;38;38;
60816;PMS5003;51921;51.518;-3.188;2023-02-22T02:04:06;35;35;
60816;PMS5003;51921;51.518;-3.188;2023-02-22T02:06:31;38;37;
60816;PMS5003;51921;51.518;-3.188;2023-02-22T02:08:57;34;33;
60816;PMS5003;51921;51.518;-3.188;2023-02-22T02:11:22;36;35;
60816;PMS5003;51921;51.518;-3.188;2023-02-22T02:13:48;39;37;
60816;PMS5003;51921;51.518;-3.188;2023-02-22T02:16:11;36;35;
60816;PMS5003;51921;51.518;-3.188;2023-02-22T02:18:37;38;37;
60816;PMS5003;51921;51.518;-3.188;2023-02-22T02:23:34;38;36;
60816;PMS5003;51921;51.518;-3.188;2023-02-22T02:25:59;36;35;
60816;PMS5003;51921;51.518;-3.188;2023-02-22T02:30:48;35;34;
60816;PMS5003;51921;51.518;-3.188;2023-02-22T02:33:10;30;30;
60816;PMS5003;51921;51.518;-3.188;2023-02-22T02:35:38;33;32;
60816;PMS5003;51921;51.518;-3.188;2023-02-22T02:38:03;35;33;
60816;PMS5003;51921;51.518;-3.188;2023-02-22T02:40:28;31;29;
60816;PMS5003;51921;51.518;-3.188;2023-02-22T02:42:54;35;34;
60816;PMS5003;51921;51.518;-3.188;2023-02-22T02:45:17;37;35;
60816;PMS5003;51921;51.518;-3.188;2023-02-22T02:47:43;35;34;
60816;PMS5003;51921;51.518;-3.188;2023-02-22T02:50:08;35;34;
60816;PMS5003;51921;51.518;-3.188;2023-02-22T02:52:33;38;35;
60816;PMS5003;51921;51.518;-3.188;2023-02-22T02:54:58;39;34;
60816;PMS5003;51921;51.518;-3.188;2023-02-22T02:57:23;41;36;
60816;PMS5003;51921;51.518;-3.188;2023-02-22T02:59:49;35;35;
60816;PMS5003;51921;51.518;-3.188;2023-02-22T03:02:18;28;28;
60816;PMS5003;51921;51.518;-3.188;2023-02-22T03:04:51;31;29;
60816;PMS5003;51921;51.518;-3.188;2023-02-22T03:07:12;36;34;
60816;PMS5003;51921;51.518;-3.188;2023-02-22T03:09:36;38;36;
60816;PMS5003;51921;51.518;-3.188;2023-02-22T03:11:57;39;33;
60816;PMS5003;51921;51.518;-3.188;2023-02-22T03:14:22;36;34;
60816;PMS5003;51921;51.518;-3.188;2023-02-22T03:16:47;35;34;
60816;PMS5003;51921;51.518;-3.188;2023-02-22T03:19:13;34;32;
60816;PMS5003;51921;51.518;-3.188;2023-02-22T03:21:40;42;38;
60816;PMS5003;51921;51.518;-3.188;2023-02-22T03:24:05;40;36;
60816;PMS5003;51921;51.518;-3.188;2023-02-22T03:26:28;47;44;
60816;PMS5003;51921;51.518;-3.188;2023-02-22T03:28:53;41;41;
60816;PMS5003;51921;51.518;-3.188;2023-02-22T03:31:21;43;41;
60816;PMS5003;51921;51.518;-3.188;2023-02-22T03:33:45;42;40;
60816;PMS5003;51921;51.518;-3.188;2023-02-22T03:36:11;35;31;
60816;PMS5003;51921;51.518;-3.188;2023-02-22T03:38:35;41;38;
60816;PMS5003;51921;51.518;-3.188;2023-02-22T03:41:01;41;37;
60816;PMS5003;51921;51.518;-3.188;2023-02-22T03:43:27;44;40;
60816;PMS5003;51921;51.518;-3.188;2023-02-22T03:45:52;37;37;
60816;PMS5003;51921;51.518;-3.188;2023-02-22T03:48:23;49;45;
60816;PMS5003;51921;51.518;-3.188;2023-02-22T03:50:42;45;43;
60816;PMS5003;51921;51.518;-3.188;2023-02-22T03:53:08;53;47;
60816;PMS5003;51921;51.518;-3.188;2023-02-22T03:55:33;44;41;
60816;PMS5003;51921;51.518;-3.188;2023-02-22T03:57:59;43;42;
60816;PMS5003;51921;51.518;-3.188;2023-02-22T04:00:24;48;46;
60816;PMS5003;51921;51.518;-3.188;2023-02-22T04:02:49;42;40;
60816;PMS5003;51921;51.518;-3.188;2023-02-22T04:05:15;43;39;
60816;PMS5003;51921;51.518;-3.188;2023-02-22T04:07:40;40;38;
60816;PMS5003;51921;51.518;-3.188;2023-02-22T04:10:05;42;37;
60816;PMS5003;51921;51.518;-3.188;2023-02-22T04:12:31;38;36;
60816;PMS5003;51921;51.518;-3.188;2023-02-22T04:14:56;41;41;
60816;PMS5003;51921;51.518;-3.188;2023-02-22T04:17:21;37;35;
60816;PMS5003;51921;51.518;-3.188;2023-02-22T04:19:47;41;37;
60816;PMS5003;51921;51.518;-3.188;2023-02-22T04:22:13;43;39;
60816;PMS5003;51921;51.518;-3.188;2023-02-22T04:24:38;35;34;
60816;PMS5003;51921;51.518;-3.188;2023-02-22T04:27:03;41;38;
60816;PMS5003;51921;51.518;-3.188;2023-02-22T04:29:28;41;38;
60816;PMS5003;51921;51.518;-3.188;2023-02-22T04:31:54;40;36;
60816;PMS5003;51921;51.518;-3.188;2023-02-22T04:34:19;43;40;
60816;PMS5003;51921;51.518;-3.188;2023-02-22T04:36:44;43;40;
60816;PMS5003;51921;51.518;-3.188;2023-02-22T04:39:10;40;36;
60816;PMS5003;51921;51.518;-3.188;2023-02-22T04:41:35;41;37;
60816;PMS5003;51921;51.518;-3.188;2023-02-22T04:44:00;35;31;
60816;PMS5003;51921;51.518;-3.188;2023-02-22T04:46:26;40;38;
60816;PMS5003;51921;51.518;-3.188;2023-02-22T04:48:51;44;39;
60816;PMS5003;51921;51.518;-3.188;2023-02-22T04:51:16;42;38;
60816;PMS5003;51921;51.518;-3.188;2023-02-22T04:53:42;40;37;
60816;PMS5003;51921;51.518;-3.188;2023-02-22T04:56:08;40;36;
60816;PMS5003;51921;51.518;-3.188;2023-02-22T04:58:33;33;31;
60816;PMS5003;51921;51.518;-3.188;2023-02-22T05:00:58;42;37;
60816;PMS5003;51921;51.518;-3.188;2023-02-22T05:03:24;34;33;
60816;PMS5003;51921;51.518;-3.188;2023-02-22T05:05:50;36;33;
60816;PMS5003;51921;51.518;-3.188;2023-02-22T05:08:15;35;32;
60816;PMS5003;51921;51.518;-3.188;2023-02-22T05:10:40;35;32;
60816;PMS5003;51921;51.518;-3.188;2023-02-22T05:13:11;31;31;
60816;PMS5003;51921;51.518;-3.188;2023-02-22T05:15:31;32;30;
60816;PMS5003;51921;51.518;-3.188;2023-02-22T05:17:56;37;35;
60816;PMS5003;51921;51.518;-3.188;2023-02-22T05:20:23;30;27;
60816;PMS5003;51921;51.518;-3.188;2023-02-22T05:22:48;28;27;
60816;PMS5003;51921;51.518;-3.188;2023-02-22T05:25:13;26;26;
60816;PMS5003;51921;51.518;-3.188;2023-02-22T05:27:38;27;25;
60816;PMS5003;51921;51.518;-3.188;2023-02-22T05:30:03;31;29;
60816;PMS5003;51921;51.518;-3.188;2023-02-22T05:32:28;30;27;
60816;PMS5003;51921;51.518;-3.188;2023-02-22T05:34:54;30;28;
60816;PMS5003;51921;51.518;-3.188;2023-02-22T05:37:19;29;27;
60816;PMS5003;51921;51.518;-3.188;2023-02-22T05:39:45;26;24;
60816;PMS5003;51921;51.518;-3.188;2023-02-22T05:42:11;28;27;
60816;PMS5003;51921;51.518;-3.188;2023-02-22T05:44:36;29;24;
60816;PMS5003;51921;51.518;-3.188;2023-02-22T05:47:02;27;26;
60816;PMS5003;51921;51.518;-3.188;2023-02-22T05:49:27;32;28;
60816;PMS5003;51921;51.518;-3.188;2023-02-22T05:51:52;28;25;
60816;PMS5003;51921;51.518;-3.188;2023-02-22T05:54:18;27;24;
60816;PMS5003;51921;51.518;-3.188;2023-02-22T05:56:44;30;26;
60816;PMS5003;51921;51.518;-3.188;2023-02-22T05:59:09;24;22;
60816;PMS5003;51921;51.518;-3.188;2023-02-22T06:01:34;25;24;
60816;PMS5003;51921;51.518;-3.188;2023-02-22T06:03:59;24;22;
60816;PMS5003;51921;51.518;-3.188;2023-02-22T06:06:24;29;28;
60816;PMS5003;51921;51.518;-3.188;2023-02-22T06:08:50;22;21;
60816;PMS5003;51921;51.518;-3.188;2023-02-22T06:11:15;24;23;
60816;PMS5003;51921;51.518;-3.188;2023-02-22T06:13:41;21;19;
60816;PMS5003;51921;51.518;-3.188;2023-02-22T06:18:31;23;19;
60816;PMS5003;51921;51.518;-3.188;2023-02-22T06:20:57;28;24;
60816;PMS5003;51921;51.518;-3.188;2023-02-22T06:23:22;22;20;
60816;PMS5003;51921;51.518;-3.188;2023-02-22T06:25:47;27;27;
60816;PMS5003;51921;51.518;-3.188;2023-02-22T06:28:12;22;20;
60816;PMS5003;51921;51.518;-3.188;2023-02-22T06:30:38;18;18;
60816;PMS5003;51921;51.518;-3.188;2023-02-22T06:33:04;22;22;
60816;PMS5003;51921;51.518;-3.188;2023-02-22T06:35:30;29;27;
60816;PMS5003;51921;51.518;-3.188;2023-02-22T06:37:55;28;25;
60816;PMS5003;51921;51.518;-3.188;2023-02-22T06:40:20;18;17;
60816;PMS5003;51921;51.518;-3.188;2023-02-22T06:42:46;21;20;
60816;PMS5003;51921;51.518;-3.188;2023-02-22T06:45:11;20;19;
60816;PMS5003;51921;51.518;-3.188;2023-02-22T06:47:38;26;26;
60816;PMS5003;51921;51.518;-3.188;2023-02-22T06:50:02;22;21;
60816;PMS5003;51921;51.518;-3.188;2023-02-22T06:52:27;25;23;
60816;PMS5003;51921;51.518;-3.188;2023-02-22T06:54:58;27;27;
60816;PMS5003;51921;51.518;-3.188;2023-02-22T06:57:19;23;23;
60816;PMS5003;51921;51.518;-3.188;2023-02-22T06:59:44;27;27;
60816;PMS5003;51921;51.518;-3.188;2023-02-22T07:02:11;28;25;
60816;PMS5003;51921;51.518;-3.188;2023-02-22T07:04:35;26;24;
60816;PMS5003;51921;51.518;-3.188;2023-02-22T07:07:00;25;25;
60816;PMS5003;51921;51.518;-3.188;2023-02-22T07:09:25;27;26;
60816;PMS5003;51921;51.518;-3.188;2023-02-22T07:11:51;29;27;
60816;PMS5003;51921;51.518;-3.188;2023-02-22T07:14:16;28;26;
60816;PMS5003;51921;51.518;-3.188;2023-02-22T07:16:41;30;27;
60816;PMS5003;51921;51.518;-3.188;2023-02-22T07:19:07;29;25;
60816;PMS5003;51921;51.518;-3.188;2023-02-22T07:21:32;30;27;
60816;PMS5003;51921;51.518;-3.188;2023-02-22T07:23:58;30;29;
60816;PMS5003;51921;51.518;-3.188;2023-02-22T07:28:49;38;33;
60816;PMS5003;51921;51.518;-3.188;2023-02-22T07:31:14;31;31;
60816;PMS5003;51921;51.518;-3.188;2023-02-22T07:33:40;35;30;
60816;PMS5003;51921;51.518;-3.188;2023-02-22T07:36:05;27;25;
60816;PMS5003;51921;51.518;-3.188;2023-02-22T07:38:31;30;28;
60816;PMS5003;51921;51.518;-3.188;2023-02-22T07:40:57;29;27;
60816;PMS5003;51921;51.518;-3.188;2023-02-22T07:43:25;35;29;
60816;PMS5003;51921;51.518;-3.188;2023-02-22T07:45:49;28;25;
60816;PMS5003;51921;51.518;-3.188;2023-02-22T07:48:13;24;23;
60816;PMS5003;51921;51.518;-3.188;2023-02-22T07:50:39;20;19;
60816;PMS5003;51921;51.518;-3.188;2023-02-22T07:53:04;18;17;
60816;PMS5003;51921;51.518;-3.188;2023-02-22T07:55:30;11;10;
60816;PMS5003;51921;51.518;-3.188;2023-02-22T08:02:46;2;2;
60816;PMS5003;51921;51.518;-3.188;2023-02-22T08:05:12;2;2;
60816;PMS5003;51921;51.518;-3.188;2023-02-22T08:07:37;2;2;
60816;PMS5003;51921;51.518;-3.188;2023-02-22T08:10:03;1;1;
60816;PMS5003;51921;51.518;-3.188;2023-02-22T08:12:28;0;0;
60816;PMS5003;51921;51.518;-3.188;2023-02-22T08:14:53;1;1;
60816;PMS5003;51921;51.518;-3.188;2023-02-22T08:17:19;0;0;
60816;PMS5003;51921;51.518;-3.188;2023-02-22T08:22:10;0;0;
60816;PMS5003;51921;51.518;-3.188;2023-02-22T08:24:36;0;0;
60816;PMS5003;51921;51.518;-3.188;2023-02-22T08:27:01;0;0;
60816;PMS5003;51921;51.518;-3.188;2023-02-22T08:29:27;0;0;
60816;PMS5003;51921;51.518;-3.188;2023-02-22T08:31:52;0;0;
60816;PMS5003;51921;51.518;-3.188;2023-02-22T08:34:18;0;0;
60816;PMS5003;51921;51.518;-3.188;2023-02-22T08:36:44;1;1;
60816;PMS5003;51921;51.518;-3.188;2023-02-22T08:39:09;0;0;
60816;PMS5003;51921;51.518;-3.188;2023-02-22T08:41:35;0;0;
60816;PMS5003;51921;51.518;-3.188;2023-02-22T08:44:06;0;0;
60816;PMS5003;51921;51.518;-3.188;2023-02-22T08:46:26;0;0;
60816;PMS5003;51921;51.518;-3.188;2023-02-22T08:48:57;0;0;
60816;PMS5003;51921;51.518;-3.188;2023-02-22T08:53:43;0;0;
60816;PMS5003;51921;51.518;-3.188;2023-02-22T08:56:08;0;0;
60816;PMS5003;51921;51.518;-3.188;2023-02-22T08:58:34;0;0;
60816;PMS5003;51921;51.518;-3.188;2023-02-22T09:00:59;0;0;
60816;PMS5003;51921;51.518;-3.188;2023-02-22T09:03:25;0;0;
60816;PMS5003;51921;51.518;-3.188;2023-02-22T09:05:56;0;0;
60816;PMS5003;51921;51.518;-3.188;2023-02-22T09:08:16;0;0;
60816;PMS5003;51921;51.518;-3.188;2023-02-22T09:10:41;0;0;
60816;PMS5003;51921;51.518;-3.188;2023-02-22T09:13:07;0;0;
60816;PMS5003;51921;51.518;-3.188;2023-02-22T09:15:33;0;0;
60816;PMS5003;51921;51.518;-3.188;2023-02-22T09:17:58;0;0;
60816;PMS5003;51921;51.518;-3.188;2023-02-22T09:20:24;0;0;
60816;PMS5003;51921;51.518;-3.188;2023-02-22T09:22:49;0;0;
60816;PMS5003;51921;51.518;-3.188;2023-02-22T09:25:15;0;0;
60816;PMS5003;51921;51.518;-3.188;2023-02-22T09:27:40;0;0;
60816;PMS5003;51921;51.518;-3.188;2023-02-22T09:30:15;0;0;
60816;PMS5003;51921;51.518;-3.188;2023-02-22T09:32:31;0;0;
60816;PMS5003;51921;51.518;-3.188;2023-02-22T09:34:57;0;0;
60816;PMS5003;51921;51.518;-3.188;2023-02-22T09:37:22;0;0;
60816;PMS5003;51921;51.518;-3.188;2023-02-22T09:39:48;0;0;
60816;PMS5003;51921;51.518;-3.188;2023-02-22T09:42:15;0;0;
60816;PMS5003;51921;51.518;-3.188;2023-02-22T09:44:40;0;0;
60816;PMS5003;51921;51.518;-3.188;2023-02-22T09:47:04;0;0;
60816;PMS5003;51921;51.518;-3.188;2023-02-22T09:49:31;0;0;
60816;PMS5003;51921;51.518;-3.188;2023-02-22T09:51:57;0;0;
60816;PMS5003;51921;51.518;-3.188;2023-02-22T09:54:22;0;0;
60816;PMS5003;51921;51.518;-3.188;2023-02-22T09:56:47;1;1;
60816;PMS5003;51921;51.518;-3.188;2023-02-22T09:59:13;0;0;
60816;PMS5003;51921;51.518;-3.188;2023-02-22T10:01:38;0;0;
60816;PMS5003;51921;51.518;-3.188;2023-02-22T10:04:04;0;0;
60816;PMS5003;51921;51.518;-3.188;2023-02-22T10:06:29;1;0;
60816;PMS5003;51921;51.518;-3.188;2023-02-22T10:08:56;0;0;
60816;PMS5003;51921;51.518;-3.188;2023-02-22T10:11:28;0;0;
60816;PMS5003;51921;51.518;-3.188;2023-02-22T10:13:46;0;0;
60816;PMS5003;51921;51.518;-3.188;2023-02-22T10:16:12;0;0;
60816;PMS5003;51921;51.518;-3.188;2023-02-22T10:18:42;0;0;
60816;PMS5003;51921;51.518;-3.188;2023-02-22T10:21:03;0;0;
60816;PMS5003;51921;51.518;-3.188;2023-02-22T10:23:29;0;0;
60816;PMS5003;51921;51.518;-3.188;2023-02-22T10:25:54;0;0;
60816;PMS5003;51921;51.518;-3.188;2023-02-22T10:28:19;0;0;
60816;PMS5003;51921;51.518;-3.188;2023-02-22T10:30:45;0;0;
60816;PMS5003;51921;51.518;-3.188;2023-02-22T10:33:11;0;0;
60816;PMS5003;51921;51.518;-3.188;2023-02-22T10:35:36;0;0;
60816;PMS5003;51921;51.518;-3.188;2023-02-22T10:38:05;0;0;
60816;PMS5003;51921;51.518;-3.188;2023-02-22T10:40:26;0;0;
60816;PMS5003;51921;51.518;-3.188;2023-02-22T10:42:51;0;0;
60816;PMS5003;51921;51.518;-3.188;2023-02-22T10:45:20;0;0;
60816;PMS5003;51921;51.518;-3.188;2023-02-22T10:47:42;0;0;
60816;PMS5003;51921;51.518;-3.188;2023-02-22T10:50:11;0;0;
60816;PMS5003;51921;51.518;-3.188;2023-02-22T10:52:39;1;0;
60816;PMS5003;51921;51.518;-3.188;2023-02-22T10:55:00;0;0;
60816;PMS5003;51921;51.518;-3.188;2023-02-22T10:57:26;0;0;
60816;PMS5003;51921;51.518;-3.188;2023-02-22T10:59:50;0;0;
60816;PMS5003;51921;51.518;-3.188;2023-02-22T11:02:17;0;0;
60816;PMS5003;51921;51.518;-3.188;2023-02-22T11:04:43;1;1;
60816;PMS5003;51921;51.518;-3.188;2023-02-22T11:07:08;0;0;
60816;PMS5003;51921;51.518;-3.188;2023-02-22T11:14:25;0;0;
60816;PMS5003;51921;51.518;-3.188;2023-02-22T11:16:50;0;0;
60816;PMS5003;51921;51.518;-3.188;2023-02-22T11:19:17;0;0;
60816;PMS5003;51921;51.518;-3.188;2023-02-22T11:21:40;0;0;
60816;PMS5003;51921;51.518;-3.188;2023-02-22T11:24:06;0;0;
60816;PMS5003;51921;51.518;-3.188;2023-02-22T11:26:35;0;0;
60816;PMS5003;51921;51.518;-3.188;2023-02-22T11:28:57;0;0;
60816;PMS5003;51921;51.518;-3.188;2023-02-22T11:31:23;0;0;
60816;PMS5003;51921;51.518;-3.188;2023-02-22T11:33:49;1;0;
60816;PMS5003;51921;51.518;-3.188;2023-02-22T11:36:14;0;0;
60816;PMS5003;51921;51.518;-3.188;2023-02-22T11:38:39;0;0;
60816;PMS5003;51921;51.518;-3.188;2023-02-22T11:41:06;0;0;
60816;PMS5003;51921;51.518;-3.188;2023-02-22T11:43:30;0;0;
60816;PMS5003;51921;51.518;-3.188;2023-02-22T11:45:58;0;0;
60816;PMS5003;51921;51.518;-3.188;2023-02-22T11:48:21;0;0;
60816;PMS5003;51921;51.518;-3.188;2023-02-22T11:50:52;0;0;
60816;PMS5003;51921;51.518;-3.188;2023-02-22T11:53:18;0;0;
60816;PMS5003;51921;51.518;-3.188;2023-02-22T11:55:38;0;0;
60816;PMS5003;51921;51.518;-3.188;2023-02-22T11:58:04;0;0;
60816;PMS5003;51921;51.518;-3.188;2023-02-22T12:00:30;0;0;
60816;PMS5003;51921;51.518;-3.188;2023-02-22T12:03:07;0;0;
60816;PMS5003;51921;51.518;-3.188;2023-02-22T12:05:22;0;0;
60816;PMS5003;51921;51.518;-3.188;2023-02-22T12:07:50;1;0;
60816;PMS5003;51921;51.518;-3.188;2023-02-22T12:10:16;1;0;
60816;PMS5003;51921;51.518;-3.188;2023-02-22T12:12:38;0;0;
60816;PMS5003;51921;51.518;-3.188;2023-02-22T12:15:04;0;0;
60816;PMS5003;51921;51.518;-3.188;2023-02-22T12:17:36;1;0;
60816;PMS5003;51921;51.518;-3.188;2023-02-22T12:19:54;0;0;
60816;PMS5003;51921;51.518;-3.188;2023-02-22T12:22:20;0;0;
60816;PMS5003;51921;51.518;-3.188;2023-02-22T12:24:45;0;0;
60816;PMS5003;51921;51.518;-3.188;2023-02-22T12:27:10;0;0;
60816;PMS5003;51921;51.518;-3.188;2023-02-22T12:29:36;1;0;
60816;PMS5003;51921;51.518;-3.188;2023-02-22T12:32:02;0;0;
60816;PMS5003;51921;51.518;-3.188;2023-02-22T12:34:28;0;0;
60816;PMS5003;51921;51.518;-3.188;2023-02-22T12:36:52;0;0;
60816;PMS5003;51921;51.518;-3.188;2023-02-22T12:41:43;0;0;
60816;PMS5003;51921;51.518;-3.188;2023-02-22T12:44:09;0;0;
60816;PMS5003;51921;51.518;-3.188;2023-02-22T12:46:35;0;0;
60816;PMS5003;51921;51.518;-3.188;2023-02-22T12:49:00;0;0;
60816;PMS5003;51921;51.518;-3.188;2023-02-22T12:51:26;0;0;
60816;PMS5003;51921;51.518;-3.188;2023-02-22T12:53:52;0;0;
60816;PMS5003;51921;51.518;-3.188;2023-02-22T12:56:18;0;0;
60816;PMS5003;51921;51.518;-3.188;2023-02-22T12:58:44;0;0;
60816;PMS5003;51921;51.518;-3.188;2023-02-22T13:01:10;1;0;
60816;PMS5003;51921;51.518;-3.188;2023-02-22T13:03:34;0;0;
60816;PMS5003;51921;51.518;-3.188;2023-02-22T13:06:00;0;0;
60816;PMS5003;51921;51.518;-3.188;2023-02-22T13:08:25;0;0;
60816;PMS5003;51921;51.518;-3.188;2023-02-22T13:10:53;0;0;
60816;PMS5003;51921;51.518;-3.188;2023-02-22T13:13:16;0;0;
60816;PMS5003;51921;51.518;-3.188;2023-02-22T13:15:42;0;0;
60816;PMS5003;51921;51.518;-3.188;2023-02-22T13:18:08;0;0;
60816;PMS5003;51921;51.518;-3.188;2023-02-22T13:20:32;0;0;
60816;PMS5003;51921;51.518;-3.188;2023-02-22T13:22:59;0;0;
60816;PMS5003;51921;51.518;-3.188;2023-02-22T13:25:23;0;0;
60816;PMS5003;51921;51.518;-3.188;2023-02-22T13:27:49;0;0;
60816;PMS5003;51921;51.518;-3.188;2023-02-22T13:30:15;0;0;
60816;PMS5003;51921;51.518;-3.188;2023-02-22T13:32:43;0;0;
60816;PMS5003;51921;51.518;-3.188;2023-02-22T13:35:09;0;0;
60816;PMS5003;51921;51.518;-3.188;2023-02-22T13:37:36;0;0;
60816;PMS5003;51921;51.518;-3.188;2023-02-22T13:40:00;0;0;
60816;PMS5003;51921;51.518;-3.188;2023-02-22T13:42:24;0;0;
60816;PMS5003;51921;51.518;-3.188;2023-02-22T13:47:16;0;0;
60816;PMS5003;51921;51.518;-3.188;2023-02-22T13:49:40;0;0;
60816;PMS5003;51921;51.518;-3.188;2023-02-22T13:52:05;0;0;
60816;PMS5003;51921;51.518;-3.188;2023-02-22T13:54:32;0;0;
60816;PMS5003;51921;51.518;-3.188;2023-02-22T13:56:54;0;0;
60816;PMS5003;51921;51.518;-3.188;2023-02-22T13:59:22;0;0;
60816;PMS5003;51921;51.518;-3.188;2023-02-22T14:01:45;0;0;
60816;PMS5003;51921;51.518;-3.188;2023-02-22T14:04:20;0;0;
60816;PMS5003;51921;51.518;-3.188;2023-02-22T14:06:36;0;0;
60816;PMS5003;51921;51.518;-3.188;2023-02-22T14:09:06;0;0;
60816;PMS5003;51921;51.518;-3.188;2023-02-22T14:16:19;0;0;
60816;PMS5003;51921;51.518;-3.188;2023-02-22T14:18:44;0;0;
60816;PMS5003;51921;51.518;-3.188;2023-02-22T14:21:09;0;0;
60816;PMS5003;51921;51.518;-3.188;2023-02-22T14:23:35;0;0;
60816;PMS5003;51921;51.518;-3.188;2023-02-22T14:28:34;0;0;
60816;PMS5003;51921;51.518;-3.188;2023-02-22T14:31:02;0;0;
60816;PMS5003;51921;51.518;-3.188;2023-02-22T14:35:42;0;0;
60816;PMS5003;51921;51.518;-3.188;2023-02-22T14:38:12;0;0;
60816;PMS5003;51921;51.518;-3.188;2023-02-22T14:40:33;1;0;
60816;PMS5003;51921;51.518;-3.188;2023-02-22T14:43:00;0;0;
60816;PMS5003;51921;51.518;-3.188;2023-02-22T14:45:25;0;0;
60816;PMS5003;51921;51.518;-3.188;2023-02-22T14:47:52;0;0;
60816;PMS5003;51921;51.518;-3.188;2023-02-22T14:50:16;0;0;
60816;PMS5003;51921;51.518;-3.188;2023-02-22T14:52:41;0;0;
60816;PMS5003;51921;51.518;-3.188;2023-02-22T14:55:12;0;0;
60816;PMS5003;51921;51.518;-3.188;2023-02-22T14:57:36;0;0;
60816;PMS5003;51921;51.518;-3.188;2023-02-22T15:00:05;0;0;
60816;PMS5003;51921;51.518;-3.188;2023-02-22T15:02:23;0;0;
60816;PMS5003;51921;51.518;-3.188;2023-02-22T15:04:50;0;0;
60816;PMS5003;51921;51.518;-3.188;2023-02-22T15:07:18;0;0;
60816;PMS5003;51921;51.518;-3.188;2023-02-22T15:09:40;0;0;
60816;PMS5003;51921;51.518;-3.188;2023-02-22T15:12:10;0;0;
60816;PMS5003;51921;51.518;-3.188;2023-02-22T15:14:31;0;0;
60816;PMS5003;51921;51.518;-3.188;2023-02-22T15:16:57;0;0;
60816;PMS5003;51921;51.518;-3.188;2023-02-22T15:19:23;0;0;
60816;PMS5003;51921;51.518;-3.188;2023-02-22T15:21:47;0;0;
60816;PMS5003;51921;51.518;-3.188;2023-02-22T15:24:17;0;0;
60816;PMS5003;51921;51.518;-3.188;2023-02-22T15:26:39;0;0;
60816;PMS5003;51921;51.518;-3.188;2023-02-22T15:29:06;0;0;
60816;PMS5003;51921;51.518;-3.188;2023-02-22T15:31:30;0;0;
60816;PMS5003;51921;51.518;-3.188;2023-02-22T15:33:55;0;0;
60816;PMS5003;51921;51.518;-3.188;2023-02-22T15:36:23;0;0;
60816;PMS5003;51921;51.518;-3.188;2023-02-22T15:38:46;0;0;
60816;PMS5003;51921;51.518;-3.188;2023-02-22T15:41:18;0;0;
60816;PMS5003;51921;51.518;-3.188;2023-02-22T15:43:37;0;0;
60816;PMS5003;51921;51.518;-3.188;2023-02-22T15:46:09;0;0;
60816;PMS5003;51921;51.518;-3.188;2023-02-22T15:48:28;0;0;
60816;PMS5003;51921;51.518;-3.188;2023-02-22T15:51:02;0;0;
60816;PMS5003;51921;51.518;-3.188;2023-02-22T15:53:23;0;0;
60816;PMS5003;51921;51.518;-3.188;2023-02-22T15:55:45;0;0;
60816;PMS5003;51921;51.518;-3.188;2023-02-22T15:58:11;0;0;
60816;PMS5003;51921;51.518;-3.188;2023-02-22T16:00:37;0;0;
60816;PMS5003;51921;51.518;-3.188;2023-02-22T16:03:02;1;1;
60816;PMS5003;51921;51.518;-3.188;2023-02-22T16:05:31;0;0;
60816;PMS5003;51921;51.518;-3.188;2023-02-22T16:07:53;0;0;
60816;PMS5003;51921;51.518;-3.188;2023-02-22T16:10:21;0;0;
60816;PMS5003;51921;51.518;-3.188;2023-02-22T16:12:44;1;0;
60816;PMS5003;51921;51.518;-3.188;2023-02-22T16:15:13;0;0;
60816;PMS5003;51921;51.518;-3.188;2023-02-22T16:17:35;0;0;
60816;PMS5003;51921;51.518;-3.188;2023-02-22T16:20:01;0;0;
60816;PMS5003;51921;51.518;-3.188;2023-02-22T16:22:27;0;0;
60816;PMS5003;51921;51.518;-3.188;2023-02-22T16:24:52;0;0;
60816;PMS5003;51921;51.518;-3.188;2023-02-22T16:27:23;0;0;
60816;PMS5003;51921;51.518;-3.188;2023-02-22T16:29:43;0;0;
60816;PMS5003;51921;51.518;-3.188;2023-02-22T16:32:08;1;1;
60816;PMS5003;51921;51.518;-3.188;2023-02-22T16:34:34;0;0;
60816;PMS5003;51921;51.518;-3.188;2023-02-22T16:37:00;0;0;
60816;PMS5003;51921;51.518;-3.188;2023-02-22T16:39:26;0;0;
60816;PMS5003;51921;51.518;-3.188;2023-02-22T16:41:51;0;0;
60816;PMS5003;51921;51.518;-3.188;2023-02-22T16:44:21;0;0;
60816;PMS5003;51921;51.518;-3.188;2023-02-22T16:46:42;0;0;
60816;PMS5003;51921;51.518;-3.188;2023-02-22T16:49:08;0;0;
60816;PMS5003;51921;51.518;-3.188;2023-02-22T16:51:37;0;0;
60816;PMS5003;51921;51.518;-3.188;2023-02-22T16:53:59;0;0;